Time;durP1;ratioP1;P1;durP2;ratioP2;P2;SDS_P1;SDS_P2;PMS_P1;PMS_P2;Temp;Humidity;BMP_temperature;BMP_pressure;BME280_temperature;BME280_humidity;BME280_pressure;Samples;Min_cycle;Max_cycle;Signal;HPM_P1;HPM_P2
2021/12/25 00:00:08;;;;;;;;;41.25;30.25;;;;;12.39;76.33;100057.19;5038698;28;61308;-76
2021/12/25 00:02:35;;;;;;;;;39.75;34.00;;;;;12.36;76.15;100064.28;5039032;28;45520;-76
2021/12/25 00:05:00;;;;;;;;;29.50;25.00;;;;;12.40;76.43;100069.53;5039250;28;45190;-76
2021/12/25 00:07:25;;;;;;;;;24.00;21.25;;;;;12.40;76.29;100061.59;5038945;28;46280;-76
2021/12/25 00:09:51;;;;;;;;;28.75;26.00;;;;;12.40;76.29;100058.94;5038581;28;59735;-76
2021/12/25 00:12:16;;;;;;;;;30.25;25.75;;;;;12.42;76.23;100059.81;5037861;28;55252;-76
2021/12/25 00:14:41;;;;;;;;;39.25;31.50;;;;;12.44;76.34;100058.03;5038218;28;52941;-76
2021/12/25 00:17:07;;;;;;;;;22.50;21.75;;;;;12.44;76.36;100043.91;5038455;28;54718;-76
2021/12/25 00:19:32;;;;;;;;;29.00;26.00;;;;;12.45;76.33;100040.38;5039709;28;57325;-78
2021/12/25 00:21:59;;;;;;;;;26.50;23.00;;;;;12.44;76.20;100034.19;5038358;28;56605;-78
2021/12/25 00:24:25;;;;;;;;;29.50;26.75;;;;;12.40;76.22;100029.81;5038866;28;45475;-77
2021/12/25 00:34:36;;;;;;;;;26.00;25.00;;;;;12.39;75.85;100016.59;5038949;28;45599;-76
2021/12/25 00:37:02;;;;;;;;;29.50;25.75;;;;;12.35;75.93;100021.03;5038742;28;46294;-76
2021/12/25 00:39:29;;;;;;;;;28.75;22.50;;;;;12.33;75.97;100020.19;5041467;28;45495;-76
2021/12/25 00:41:56;;;;;;;;;25.25;20.75;;;;;12.27;76.12;100007.00;5039099;28;45450;-78
2021/12/25 00:44:21;;;;;;;;;25.75;25.75;;;;;12.29;76.20;100021.09;5038637;28;45518;-76
2021/12/25 00:46:46;;;;;;;;;29.50;29.50;;;;;12.27;76.27;100017.59;5039313;28;54659;-76
2021/12/25 00:49:12;;;;;;;;;26.75;24.25;;;;;12.24;76.20;100022.91;5039892;28;59826;-76
2021/12/25 00:51:37;;;;;;;;;30.75;26.00;;;;;12.20;76.00;100013.25;5044221;28;55724;-76
2021/12/25 00:54:03;;;;;;;;;25.50;23.50;;;;;12.16;76.05;100017.69;5038007;28;52873;-76
2021/12/25 00:56:28;;;;;;;;;23.50;22.25;;;;;12.13;76.00;100024.78;5037906;28;45555;-76
2021/12/25 00:58:53;;;;;;;;;26.75;24.75;;;;;12.11;75.78;100022.16;5039495;28;50218;-76
2021/12/25 01:01:19;;;;;;;;;26.25;25.25;;;;;12.06;75.75;100022.19;5038373;28;45331;-78
2021/12/25 01:03:44;;;;;;;;;29.00;26.00;;;;;12.05;75.71;100024.84;5019402;28;49510;-76
2021/12/25 01:06:10;;;;;;;;;30.00;26.50;;;;;11.99;75.62;100023.13;5038464;28;47342;-76
2021/12/25 01:08:35;;;;;;;;;31.75;27.50;;;;;11.96;75.80;100025.78;5037161;28;56385;-77
2021/12/25 01:11:01;;;;;;;;;32.75;29.75;;;;;11.90;75.76;100025.84;5020289;28;45526;-76
2021/12/25 01:13:34;;;;;;;;;32.25;29.00;;;;;11.87;75.65;100027.63;5039492;28;45656;-77
2021/12/25 01:21:41;;;;;;;;;29.50;25.75;;;;;11.74;75.73;100018.88;5038009;28;45532;-75
2021/12/25 01:26:43;;;;;;;;;31.25;24.00;;;;;11.69;75.55;100045.34;5037604;28;46428;-76
2021/12/25 01:29:22;;;;;;;;;29.00;25.00;;;;;11.64;75.48;100038.31;5037389;28;45627;-77
2021/12/25 01:39:21;;;;;;;;;32.00;29.50;;;;;11.46;75.48;100040.19;5020517;28;45391;-76
2021/12/25 01:49:57;;;;;;;;;37.00;31.00;;;;;11.41;76.14;100049.91;5037582;28;45458;-76
2021/12/25 01:52:29;;;;;;;;;32.25;29.00;;;;;11.42;76.05;100045.50;5036992;28;45562;-77
2021/12/25 01:54:55;;;;;;;;;38.75;32.75;;;;;11.47;76.00;100056.94;5037254;28;45455;-76
2021/12/25 01:57:21;;;;;;;;;42.75;35.50;;;;;11.50;76.01;100051.59;5037306;28;46721;-76
2021/12/25 01:59:46;;;;;;;;;35.00;26.75;;;;;11.54;76.03;100050.72;5036636;28;60535;-76
2021/12/25 02:02:12;;;;;;;;;35.00;30.00;;;;;11.60;76.10;100052.44;5037569;28;45217;-76
2021/12/25 02:04:37;;;;;;;;;27.50;23.75;;;;;11.65;75.87;100048.88;5037460;28;48439;-76
2021/12/25 02:07:02;;;;;;;;;27.75;22.00;;;;;11.68;75.82;100043.59;5036075;28;60227;-77
2021/12/25 02:09:28;;;;;;;;;18.50;15.50;;;;;11.73;76.05;100043.56;5040848;28;47251;-76
2021/12/25 02:11:53;;;;;;;;;19.50;18.00;;;;;11.76;75.80;100056.75;5036477;28;52837;-76
2021/12/25 02:14:19;;;;;;;;;18.75;13.75;;;;;11.74;75.86;100054.13;5036001;28;45624;-75
2021/12/25 02:16:55;;;;;;;;;19.00;18.25;;;;;11.76;75.63;100056.75;5037123;28;46490;-76
2021/12/25 02:19:34;;;;;;;;;16.75;12.00;;;;;11.75;76.08;100053.22;5036577;28;45328;-77
2021/12/25 02:22:01;;;;;;;;;16.25;14.25;;;;;11.77;75.95;100053.22;5021113;28;45467;-76
2021/12/25 02:24:27;;;;;;;;;17.33;14.67;;;;;11.80;76.23;100053.19;5019222;28;45717;-77
2021/12/25 02:26:52;;;;;;;;;15.67;11.33;;;;;11.87;75.99;100052.28;5036580;28;60252;-77
2021/12/25 02:29:17;;;;;;;;;18.33;12.00;;;;;11.93;75.96;100051.38;5036757;28;45292;-78
2021/12/25 02:31:43;;;;;;;;;15.00;11.33;;;;;11.97;76.01;100046.06;5036857;28;53441;-76
2021/12/25 02:34:08;;;;;;;;;14.33;8.33;;;;;12.01;75.78;100053.09;5036386;28;57025;-76
2021/12/25 02:36:33;;;;;;;;;11.00;10.00;;;;;12.06;75.92;100050.41;5035929;28;60747;-76
2021/12/25 02:38:59;;;;;;;;;10.33;10.00;;;;;12.09;75.57;100053.03;5036062;28;58831;-76
2021/12/25 02:41:24;;;;;;;;;10.00;9.00;;;;;12.13;75.85;100045.94;5036201;28;57758;-77
2021/12/25 02:43:50;;;;;;;;;15.33;10.33;;;;;12.17;76.00;100048.56;5036384;28;53711;-76
2021/12/25 02:46:15;;;;;;;;;11.00;9.67;;;;;12.19;75.81;100044.13;5036715;28;46312;-76
2021/12/25 02:48:42;;;;;;;;;13.33;11.67;;;;;12.13;75.69;100038.00;5036498;28;45525;-77
2021/12/25 02:51:08;;;;;;;;;12.00;9.00;;;;;12.22;75.99;100045.88;5036445;28;45309;-76
2021/12/25 02:53:34;;;;;;;;;9.67;9.67;;;;;12.22;75.86;100041.47;5021490;28;47300;-75
2021/12/25 02:55:59;;;;;;;;;12.67;10.00;;;;;12.25;75.75;100048.47;5017738;28;46125;-76
2021/12/25 02:58:25;;;;;;;;;11.00;11.00;;;;;12.27;75.71;100046.72;5018611;28;45334;-77
2021/12/25 03:00:54;;;;;;;;;14.33;9.67;;;;;12.26;75.59;100037.91;5018677;28;45390;-76
2021/12/25 03:03:19;;;;;;;;;16.00;11.00;;;;;12.28;75.75;100041.41;5036419;28;45617;-77
2021/12/25 03:05:45;;;;;;;;;15.67;12.00;;;;;12.30;75.69;100041.38;5020118;28;47336;-76
2021/12/25 03:08:11;;;;;;;;;15.00;11.00;;;;;12.29;75.41;100036.97;5137646;22;45629;-76
2021/12/25 03:10:37;;;;;;;;;12.67;11.00;;;;;12.25;75.37;100033.50;5018234;28;45578;-76
2021/12/25 03:15:45;;;;;;;;;13.33;11.33;;;;;12.28;75.54;100035.22;5015903;28;45719;-76
2021/12/25 03:18:25;;;;;;;;;12.00;11.00;;;;;12.30;75.60;100039.63;5015706;28;45321;-76
2021/12/25 03:20:53;;;;;;;;;13.00;12.00;;;;;12.30;75.48;100034.34;5004167;28;45512;-76
2021/12/25 03:23:21;;;;;;;;;15.00;11.33;;;;;12.32;75.58;100032.56;5019150;28;46094;-77
2021/12/25 03:25:47;;;;;;;;;15.33;11.67;;;;;12.29;75.49;100032.56;5015385;28;46682;-76
2021/12/25 03:28:14;;;;;;;;;16.00;10.00;;;;;12.31;75.42;100030.81;5007377;28;45497;-76
2021/12/25 03:30:39;;;;;;;;;17.00;12.67;;;;;12.32;75.55;100042.25;5016502;28;45410;-76
2021/12/25 03:33:10;;;;;;;;;13.00;10.00;;;;;12.18;75.85;100015.03;5016333;28;45484;-77
2021/12/25 03:35:35;;;;;;;;;11.00;11.00;;;;;12.32;75.58;100031.69;5015697;28;46333;-77
2021/12/25 03:38:02;;;;;;;;;9.33;8.33;;;;;12.28;75.47;100027.28;5015990;28;45352;-76
2021/12/25 03:40:28;;;;;;;;;11.33;11.33;;;;;12.33;75.36;100038.72;5015951;28;45703;-77
2021/12/25 03:42:53;;;;;;;;;15.00;12.00;;;;;12.29;75.66;100037.84;5017879;28;45843;-76
2021/12/25 03:45:19;;;;;;;;;12.00;9.33;;;;;12.31;75.82;100038.75;5021271;28;45617;-76
2021/12/25 03:47:46;;;;;;;;;11.33;11.33;;;;;12.29;75.49;100040.50;5010412;28;45447;-77
2021/12/25 03:58:27;;;;;;;;;13.00;12.00;;;;;12.32;75.41;100053.72;5015884;28;45499;-76
2021/12/25 04:00:59;;;;;;;;;10.67;8.67;;;;;12.30;75.47;100050.22;5015510;28;45360;-76
2021/12/25 04:03:39;;;;;;;;;14.00;11.00;;;;;12.32;75.48;100053.72;5015275;28;45297;-76
2021/12/25 04:06:08;;;;;;;;;13.00;11.33;;;;;12.28;75.39;100043.16;5015302;28;47104;-77
2021/12/25 04:08:40;;;;;;;;;16.33;15.00;;;;;12.33;75.54;100062.53;5015268;28;45381;-76
2021/12/25 04:11:13;;;;;;;;;10.00;10.00;;;;;12.32;75.55;100061.66;5016263;28;45432;-76
2021/12/25 04:13:41;;;;;;;;;11.67;11.00;;;;;12.32;75.44;100059.03;5015011;28;45655;-76
2021/12/25 04:16:09;;;;;;;;;16.33;13.67;;;;;12.32;75.48;100050.19;5014979;28;46453;-77
2021/12/25 04:18:34;;;;;;;;;15.67;12.00;;;;;12.33;75.40;100047.53;5015023;28;47248;-77
2021/12/25 04:21:00;;;;;;;;;13.00;10.00;;;;;12.34;75.71;100045.75;5020322;28;45363;-76
2021/12/25 04:23:28;;;;;;;;;13.33;11.67;;;;;12.30;75.58;100044.94;5019016;28;45566;-76
2021/12/25 04:25:54;;;;;;;;;11.33;10.00;;;;;12.34;75.51;100059.00;5015201;28;46666;-76
2021/12/25 04:28:37;;;;;;;;;15.67;12.00;;;;;12.35;75.68;100051.94;5014597;28;45608;-76
2021/12/25 05:03:59;;;;;;;;;21.67;16.33;;;;;12.37;75.85;100056.34;5016257;28;45477;-77
2021/12/25 05:06:24;;;;;;;;;23.67;16.67;;;;;12.26;75.84;100040.53;5017820;28;45499;-76
2021/12/25 05:08:50;;;;;;;;;15.67;13.33;;;;;12.38;75.89;100059.84;5017603;28;47913;-76
2021/12/25 05:11:16;;;;;;;;;21.00;16.00;;;;;12.38;75.84;100057.22;5024710;28;45408;-76
2021/12/25 05:13:43;;;;;;;;;17.00;15.00;;;;;12.39;75.70;100054.53;5014751;28;45416;-76
2021/12/25 05:16:09;;;;;;;;;17.00;13.67;;;;;12.41;75.90;100065.09;5005319;28;45579;-77
2021/12/25 05:18:34;;;;;;;;;18.67;14.67;;;;;12.41;76.13;100060.72;5016936;28;45658;-76
2021/12/25 05:21:00;;;;;;;;;18.33;15.67;;;;;12.41;75.61;100058.06;5017820;28;48694;-78
2021/12/25 05:23:25;;;;;;;;;14.67;13.67;;;;;12.41;75.89;100058.06;5018217;28;45460;-76
2021/12/25 05:25:50;;;;;;;;;23.00;17.33;;;;;12.42;75.74;100062.47;4999764;28;45518;-78
2021/12/25 05:28:24;;;;;;;;;21.33;16.33;;;;;12.43;75.78;100064.22;4999929;28;48468;-76
2021/12/25 05:30:49;;;;;;;;;16.00;13.33;;;;;12.43;75.71;100061.56;5017249;28;45534;-78
2021/12/25 05:33:18;;;;;;;;;16.67;14.00;;;;;12.42;75.61;100062.47;5017343;28;45415;-76
2021/12/25 05:35:43;;;;;;;;;14.33;14.33;;;;;12.42;75.74;100065.13;4983149;28;45517;-77
2021/12/25 05:38:14;;;;;;;;;16.00;12.67;;;;;12.41;75.67;100055.44;5016976;28;46494;-77
2021/12/25 05:40:39;;;;;;;;;19.00;16.00;;;;;12.41;75.71;100066.00;5020394;28;45337;-76
2021/12/25 05:43:05;;;;;;;;;18.67;17.33;;;;;12.41;75.79;100055.44;5017024;28;45298;-77
2021/12/25 05:45:31;;;;;;;;;17.33;16.33;;;;;12.42;75.80;100065.13;5017215;28;48901;-76
2021/12/25 05:47:56;;;;;;;;;21.00;16.33;;;;;12.44;75.90;100062.44;5017126;28;46725;-76
2021/12/25 05:50:22;;;;;;;;;17.33;15.33;;;;;12.43;75.87;100066.88;4998861;28;60598;-76
2021/12/25 05:52:47;;;;;;;;;22.00;17.33;;;;;12.44;75.66;100073.91;5025606;28;45429;-76
2021/12/25 05:55:13;;;;;;;;;20.00;18.00;;;;;12.44;75.98;100068.63;5016727;28;45576;-77
2021/12/25 05:57:38;;;;;;;;;19.33;16.00;;;;;12.45;75.70;100067.72;5017213;28;46325;-76
2021/12/25 06:00:05;;;;;;;;;16.00;13.67;;;;;12.42;75.86;100057.19;5016573;28;45369;-76
2021/12/25 06:02:31;;;;;;;;;18.00;18.00;;;;;12.45;75.81;100069.50;5016637;28;45420;-76
2021/12/25 06:04:56;;;;;;;;;18.00;14.00;;;;;12.46;76.17;100077.41;4998937;28;54428;-75
2021/12/25 06:07:22;;;;;;;;;23.00;18.00;;;;;12.45;76.37;100067.72;5016068;28;61788;-76
2021/12/25 06:09:47;;;;;;;;;17.67;14.67;;;;;12.44;76.61;100068.63;5006344;28;45321;-75
2021/12/25 06:12:14;;;;;;;;;17.00;15.67;;;;;12.42;76.85;100072.19;4997683;28;45521;-76
2021/12/25 06:14:41;;;;;;;;;18.33;14.33;;;;;12.39;77.17;100065.13;4982342;28;45662;-76
2021/12/25 06:17:06;;;;;;;;;16.67;16.00;;;;;12.37;77.39;100069.56;4985905;28;46556;-76
2021/12/25 06:19:32;;;;;;;;;19.00;16.00;;;;;12.33;77.62;100076.66;4989603;28;52246;-76
2021/12/25 06:21:57;;;;;;;;;17.00;16.00;;;;;12.33;77.84;100078.44;5004740;28;52863;-76
2021/12/25 06:24:22;;;;;;;;;17.67;15.67;;;;;12.30;78.07;100068.75;5002854;28;51582;-76
2021/12/25 06:26:48;;;;;;;;;17.00;14.00;;;;;12.29;77.91;100072.25;4996818;28;45616;-76
2021/12/25 06:29:19;;;;;;;;;19.67;16.33;;;;;12.26;77.73;100076.72;4993230;28;57626;-76
2021/12/25 06:31:44;;;;;;;;;17.00;14.00;;;;;12.25;78.07;100077.59;5004273;28;45381;-76
2021/12/25 06:34:10;;;;;;;;;19.67;15.00;;;;;12.28;77.79;100085.53;4984555;28;48069;-76
2021/12/25 06:36:35;;;;;;;;;14.67;13.00;;;;;12.25;77.89;100083.78;5001086;28;63677;-76
2021/12/25 06:39:01;;;;;;;;;13.33;10.00;;;;;12.29;77.51;100088.16;4985357;28;58489;-75
2021/12/25 06:41:28;;;;;;;;;14.00;12.67;;;;;12.29;77.59;100088.16;4993055;28;45338;-76
2021/12/25 06:43:54;;;;;;;;;19.67;16.00;;;;;12.32;77.48;100087.25;4996878;28;45436;-76
2021/12/25 06:46:19;;;;;;;;;23.67;13.00;;;;;12.33;77.44;100089.00;5005672;28;61461;-77
2021/12/25 06:48:44;;;;;;;;;14.33;13.00;;;;;12.32;77.37;100088.13;5001613;28;58004;-76
2021/12/25 06:51:10;;;;;;;;;17.00;12.33;;;;;12.35;77.28;100086.34;5000651;28;45953;-77
2021/12/25 06:53:37;;;;;;;;;16.67;13.00;;;;;12.37;77.14;100089.88;4979359;28;45555;-76
2021/12/25 06:56:03;;;;;;;;;17.00;13.00;;;;;12.37;76.76;100092.53;4999727;28;46266;-77
2021/12/25 06:58:28;;;;;;;;;16.33;12.67;;;;;12.38;76.88;100087.22;4982040;28;46737;-76
2021/12/25 07:00:54;;;;;;;;;16.67;14.33;;;;;12.39;76.96;100083.66;5002664;28;52823;-76
2021/12/25 07:03:19;;;;;;;;;18.33;12.67;;;;;12.40;77.05;100089.84;5002642;28;53953;-75
2021/12/25 07:05:44;;;;;;;;;21.33;18.00;;;;;12.40;76.99;100088.06;5000095;28;61069;-76
2021/12/25 07:08:10;;;;;;;;;18.00;17.00;;;;;12.41;76.56;100087.19;5002652;28;59215;-76
2021/12/25 07:10:35;;;;;;;;;17.33;12.33;;;;;12.41;76.60;100087.19;5018085;28;45886;-76
2021/12/25 07:13:01;;;;;;;;;13.33;13.33;;;;;12.43;76.75;100097.75;5014942;28;46437;-77
2021/12/25 07:15:27;;;;;;;;;16.67;14.00;;;;;12.42;76.61;100091.59;5015300;28;47850;-76
2021/12/25 07:17:52;;;;;;;;;13.00;13.00;;;;;12.38;76.52;100081.91;4998421;28;45367;-75
2021/12/25 07:20:18;;;;;;;;;17.33;16.00;;;;;12.43;76.53;100085.41;5016324;28;45662;-76
2021/12/25 07:22:43;;;;;;;;;18.00;14.33;;;;;12.46;76.54;100092.41;5014931;28;55501;-76
2021/12/25 07:25:08;;;;;;;;;12.33;11.67;;;;;12.46;76.60;100100.38;5015023;28;62256;-76
2021/12/25 07:27:34;;;;;;;;;20.67;15.33;;;;;12.43;76.81;100085.41;5014908;28;45369;-78
2021/12/25 07:30:01;;;;;;;;;16.00;13.00;;;;;12.47;76.54;100086.25;5016104;28;45447;-76
2021/12/25 07:32:27;;;;;;;;;15.00;13.00;;;;;12.46;76.27;100084.47;5017662;28;45309;-76
2021/12/25 07:34:52;;;;;;;;;20.00;15.33;;;;;12.46;76.57;100088.00;5012702;28;63381;-77
2021/12/25 07:37:18;;;;;;;;;17.00;13.67;;;;;12.45;76.74;100083.59;5016233;28;45420;-76
2021/12/25 07:39:43;;;;;;;;;19.33;16.00;;;;;12.46;76.96;100095.06;5015324;28;54341;-76
2021/12/25 07:42:09;;;;;;;;;17.00;14.33;;;;;12.44;76.99;100091.56;5015178;28;51361;-76
2021/12/25 07:44:34;;;;;;;;;18.33;14.33;;;;;12.43;77.33;100093.34;5015563;28;45699;-76
2021/12/25 07:46:59;;;;;;;;;18.00;16.00;;;;;12.42;77.24;100096.88;5015286;28;45352;-76
2021/12/25 07:49:26;;;;;;;;;15.67;15.33;;;;;12.42;76.95;100099.53;5015689;28;45332;-76
2021/12/25 07:51:51;;;;;;;;;17.33;15.00;;;;;12.42;76.98;100094.25;5015583;28;45166;-75
2021/12/25 07:54:17;;;;;;;;;21.00;16.67;;;;;12.40;76.82;100090.72;5014768;28;58348;-78
2021/12/25 07:56:42;;;;;;;;;15.33;14.00;;;;;12.43;76.86;100095.13;5022137;28;45205;-76
2021/12/25 07:59:08;;;;;;;;;16.00;16.00;;;;;12.43;76.97;100097.75;5014596;28;55584;-76
2021/12/25 08:01:35;;;;;;;;;12.33;12.33;;;;;12.43;76.82;100098.63;5017850;28;45652;-76
2021/12/25 08:04:04;;;;;;;;;23.67;16.00;;;;;12.45;76.79;100098.63;5014257;28;47562;-76
2021/12/25 08:06:30;;;;;;;;;22.00;17.67;;;;;12.47;76.75;100102.16;5007418;28;45251;-77
2021/12/25 08:08:56;;;;;;;;;18.33;16.33;;;;;12.48;76.81;100107.44;5007046;28;45546;-76
2021/12/25 08:11:22;;;;;;;;;21.33;18.33;;;;;12.50;76.89;100107.41;5000226;28;45615;-76
2021/12/25 08:13:47;;;;;;;;;23.67;17.00;;;;;12.48;76.59;100098.59;5000359;28;45618;-77
2021/12/25 08:16:13;;;;;;;;;13.33;12.00;;;;;12.53;76.71;100108.25;4998938;28;45502;-76
2021/12/25 08:18:38;;;;;;;;;20.50;19.00;;;;;12.55;76.67;100111.75;4998265;28;55557;-76
2021/12/25 08:21:04;;;;;;;;;18.00;18.00;;;;;12.56;76.59;100118.81;4998176;28;52592;-76
2021/12/25 08:23:31;;;;;;;;;18.00;17.67;;;;;12.58;76.63;100108.22;5001388;28;47601;-76
2021/12/25 08:25:56;;;;;;;;;19.00;17.00;;;;;12.59;76.73;100099.38;4998894;28;45482;-76
2021/12/25 08:28:21;;;;;;;;;18.00;15.67;;;;;12.62;76.81;100111.72;4985859;28;54286;-75
2021/12/25 08:30:47;;;;;;;;;23.33;19.00;;;;;12.63;76.27;100111.72;5001827;28;50341;-78
2021/12/25 08:33:12;;;;;;;;;20.00;15.00;;;;;12.65;76.54;100109.91;4999033;28;45946;-76
2021/12/25 08:35:38;;;;;;;;;20.33;16.33;;;;;12.55;76.26;100090.59;4997742;28;60841;-76
2021/12/25 08:38:03;;;;;;;;;21.00;21.00;;;;;12.69;76.47;100106.34;4998905;28;45370;-76
2021/12/25 08:40:28;;;;;;;;;27.33;18.67;;;;;12.69;76.51;100119.59;5004650;28;45348;-77
2021/12/25 08:42:59;;;;;;;;;23.67;18.00;;;;;12.71;76.23;100122.22;5000390;28;49815;-75
2021/12/25 08:48:20;;;;;;;;;24.67;20.00;;;;;12.75;76.15;100124.84;5003906;28;45397;-76
2021/12/25 08:50:50;;;;;;;;;18.67;17.67;;;;;12.76;76.12;100121.28;5002574;28;45655;-76
2021/12/25 08:53:17;;;;;;;;;22.67;18.67;;;;;12.68;75.87;100099.31;5004115;28;47547;-76
2021/12/25 08:55:43;;;;;;;;;17.00;17.00;;;;;12.79;76.03;100123.06;4986842;28;45424;-76
2021/12/25 08:58:09;;;;;;;;;19.67;18.00;;;;;12.80;75.69;100128.31;5002932;28;45327;-76
2021/12/25 09:00:34;;;;;;;;;20.33;17.00;;;;;12.81;75.55;100121.25;4996462;28;52160;-76
2021/12/25 09:02:59;;;;;;;;;21.00;19.67;;;;;12.83;75.85;100128.28;5001262;28;46382;-76
2021/12/25 09:05:25;;;;;;;;;18.67;16.67;;;;;12.85;75.43;100130.94;4997133;28;59180;-77
2021/12/25 09:07:50;;;;;;;;;21.33;16.00;;;;;12.85;75.76;100128.28;5006599;28;45499;-77
2021/12/25 09:10:16;;;;;;;;;18.33;17.00;;;;;12.87;75.70;100133.56;5017194;28;56205;-76
2021/12/25 09:12:43;;;;;;;;;20.33;20.00;;;;;12.85;75.55;100128.28;5023411;28;46675;-77
2021/12/25 09:15:09;;;;;;;;;19.33;19.33;;;;;12.87;75.51;100122.97;5017334;28;45495;-78
2021/12/25 09:17:34;;;;;;;;;20.33;19.00;;;;;12.85;75.48;100126.50;5024731;28;45542;-77
2021/12/25 09:20:00;;;;;;;;;29.33;18.33;;;;;12.91;75.28;100130.00;4999670;28;45624;-76
2021/12/25 09:22:25;;;;;;;;;20.33;15.67;;;;;12.85;75.27;100126.50;5017081;28;47193;-77
2021/12/25 09:24:51;;;;;;;;;24.33;18.00;;;;;12.94;75.47;100133.47;5016853;28;54662;-76
2021/12/25 09:27:16;;;;;;;;;18.67;18.00;;;;;12.96;75.20;100139.66;5016390;28;51658;-77
2021/12/25 09:29:42;;;;;;;;;27.00;21.00;;;;;12.89;75.35;100130.03;5016743;28;46522;-76
2021/12/25 09:32:07;;;;;;;;;27.33;22.33;;;;;12.98;75.04;100142.28;5016326;28;47627;-76
2021/12/25 09:34:32;;;;;;;;;20.00;18.00;;;;;12.98;74.95;100144.94;5019375;28;57251;-76
2021/12/25 09:36:58;;;;;;;;;23.00;21.00;;;;;12.99;74.79;100136.97;5021029;28;54416;-76
2021/12/25 09:39:23;;;;;;;;;18.67;17.00;;;;;13.01;75.29;100142.25;5017174;28;45356;-76
2021/12/25 09:41:49;;;;;;;;;24.00;19.33;;;;;13.04;75.11;100144.88;4999727;28;46433;-76
2021/12/25 09:44:14;;;;;;;;;18.67;18.00;;;;;13.04;75.15;100145.75;4999402;28;45362;-76
2021/12/25 09:46:40;;;;;;;;;22.67;19.33;;;;;13.05;75.04;100150.19;5017120;28;55655;-76
2021/12/25 09:49:05;;;;;;;;;19.33;14.67;;;;;13.04;74.70;100145.75;5014237;28;45407;-77
2021/12/25 09:51:31;;;;;;;;;20.67;19.33;;;;;13.12;74.78;100161.59;5016165;28;46593;-76
2021/12/25 09:54:25;;;;;;;;;18.67;18.33;;;;;13.19;74.79;100160.63;5017105;28;45307;-78
2021/12/25 09:56:53;;;;;;;;;22.67;17.00;;;;;13.26;74.70;100153.50;4999237;28;45582;-77
2021/12/25 09:59:18;;;;;;;;;19.00;17.33;;;;;13.32;74.47;100153.47;5015250;28;45385;-78
2021/12/25 10:01:45;;;;;;;;;26.67;19.33;;;;;13.36;74.23;100150.72;5021450;28;45747;-76
2021/12/25 10:04:29;;;;;;;;;15.00;14.00;;;;;13.42;74.13;100156.84;5016398;28;45194;-76
2021/12/25 10:06:54;;;;;;;;;16.67;14.67;;;;;13.45;73.71;100159.50;5008848;28;45387;-78
2021/12/25 10:09:21;;;;;;;;;20.33;16.33;;;;;13.45;73.85;100157.72;5015023;28;52359;-75
2021/12/25 10:12:07;;;;;;;;;21.33;16.67;;;;;13.44;73.91;100161.28;5013385;28;46540;-76
2021/12/25 10:14:32;;;;;;;;;21.67;18.33;;;;;13.35;73.69;100148.97;5013989;28;45317;-76
2021/12/25 10:16:58;;;;;;;;;16.00;14.33;;;;;13.34;73.81;100162.25;5020746;28;45970;-76
2021/12/25 10:19:26;;;;;;;;;19.33;17.00;;;;;13.30;73.84;100147.28;5017153;28;45546;-77
2021/12/25 10:22:06;;;;;;;;;18.67;15.67;;;;;13.31;73.68;100149.91;4998087;28;46649;-77
2021/12/25 10:24:37;;;;;;;;;20.00;12.00;;;;;13.32;73.58;100148.16;5016369;28;45751;-76
2021/12/25 10:27:20;;;;;;;;;27.00;20.33;;;;;13.31;73.66;100149.03;5019302;28;45489;-76
2021/12/25 10:29:46;;;;;;;;;19.33;18.00;;;;;13.32;73.87;100141.06;5017041;28;45503;-76
2021/12/25 10:32:21;;;;;;;;;19.33;17.67;;;;;13.33;73.93;100139.31;5016378;28;46019;-76
2021/12/25 10:34:47;;;;;;;;;18.67;16.33;;;;;13.38;73.94;100133.94;5018693;28;45400;-76
2021/12/25 10:37:13;;;;;;;;;21.33;15.00;;;;;13.46;73.57;100147.97;5015722;28;45324;-77
2021/12/25 10:39:39;;;;;;;;;23.00;18.67;;;;;13.50;73.37;100142.63;5017093;28;45369;-76
2021/12/25 10:42:13;;;;;;;;;21.67;18.00;;;;;13.51;73.46;100131.13;5015587;28;47429;-76
2021/12/25 10:44:40;;;;;;;;;20.00;14.67;;;;;13.58;73.03;100138.13;5016032;28;45427;-76
2021/12/25 10:47:08;;;;;;;;;20.00;18.00;;;;;13.65;73.29;100140.69;5016661;28;45207;-76
2021/12/25 10:49:44;;;;;;;;;15.33;14.67;;;;;13.68;73.16;100136.19;5021942;28;45396;-76
2021/12/25 10:52:10;;;;;;;;;17.67;14.00;;;;;13.71;73.12;100133.53;5016031;28;46484;-76
2021/12/25 10:54:41;;;;;;;;;18.33;13.67;;;;;13.74;73.03;100135.25;5015794;28;45320;-77
2021/12/25 10:57:07;;;;;;;;;19.67;14.33;;;;;13.73;72.91;100128.19;5016872;28;45242;-76
2021/12/25 10:59:43;;;;;;;;;16.67;14.67;;;;;13.70;72.94;100120.28;4998774;28;51384;-78
2021/12/25 11:02:08;;;;;;;;;15.33;14.33;;;;;13.70;72.75;100112.34;5016184;28;46353;-76
2021/12/25 11:04:36;;;;;;;;;15.00;12.33;;;;;13.70;72.67;100123.81;5015052;28;59100;-76
2021/12/25 11:07:15;;;;;;;;;15.00;12.33;;;;;13.70;72.62;100115.84;4998759;28;45476;-76
2021/12/25 11:09:40;;;;;;;;;20.00;12.00;;;;;13.68;72.86;100109.66;4997557;28;45571;-76
2021/12/25 11:12:21;;;;;;;;;16.00;15.67;;;;;13.75;72.89;100103.41;4996807;28;62578;-78
2021/12/25 11:14:47;;;;;;;;;16.67;15.00;;;;;13.68;72.26;100088.44;4994873;28;45433;-76
2021/12/25 11:17:25;;;;;;;;;23.00;16.00;;;;;13.79;72.64;100090.97;4979111;28;45324;-78
2021/12/25 11:19:59;;;;;;;;;15.33;14.00;;;;;13.87;72.29;100105.00;4995721;28;45578;-76
2021/12/25 11:22:26;;;;;;;;;16.67;13.67;;;;;13.84;72.39;100091.78;4996325;28;46948;-76
2021/12/25 11:24:52;;;;;;;;;16.00;14.33;;;;;13.89;72.30;100098.75;4995812;28;45524;-77
2021/12/25 11:27:17;;;;;;;;;15.67;14.33;;;;;13.90;72.45;100099.63;4998762;28;45706;-76
2021/12/25 11:29:42;;;;;;;;;15.67;14.00;;;;;13.87;72.72;100087.31;4984127;28;53922;-76
2021/12/25 11:32:12;;;;;;;;;21.67;14.67;;;;;13.92;72.44;100102.28;4981719;28;59409;-78
2021/12/25 11:34:37;;;;;;;;;16.33;16.33;;;;;13.94;72.03;100085.44;4993736;28;45513;-76
2021/12/25 11:37:03;;;;;;;;;21.33;14.67;;;;;13.96;72.01;100091.63;4997459;28;58358;-76
2021/12/25 11:39:29;;;;;;;;;16.67;15.00;;;;;13.95;72.22;100087.19;4999957;28;45416;-76
2021/12/25 11:41:58;;;;;;;;;21.33;15.33;;;;;14.05;71.92;100090.59;5002418;28;47174;-76
2021/12/25 11:44:41;;;;;;;;;20.67;18.33;;;;;14.10;71.99;100088.72;4993572;28;45492;-77
2021/12/25 11:47:07;;;;;;;;;18.00;17.00;;;;;14.14;71.83;100088.66;4995902;28;46608;-76
2021/12/25 11:49:32;;;;;;;;;16.33;14.67;;;;;14.20;72.07;100092.13;5006392;28;45559;-76
2021/12/25 11:52:14;;;;;;;;;32.00;27.67;;;;;14.22;72.17;100085.00;5002165;28;46106;-76
2021/12/25 11:57:47;;;;;;;;;21.00;18.00;;;;;14.24;71.42;100080.56;4971183;28;45314;-75
2021/12/25 11:59:58;;;;;;;;;19.67;16.67;;;;;14.18;71.67;100076.22;4999631;28;45473;-77
2021/12/25 12:02:43;;;;;;;;;20.67;17.00;;;;;14.20;71.76;100074.41;5008464;28;47581;-77
2021/12/25 12:05:29;;;;;;;;;20.33;17.67;;;;;14.19;71.57;100070.00;4998933;28;45466;-77
2021/12/25 12:07:59;;;;;;;;;19.33;17.67;;;;;14.16;71.81;100064.75;5002801;28;45460;-75
2021/12/25 12:10:46;;;;;;;;;18.33;15.33;;;;;14.25;71.55;100072.56;5007159;28;45350;-76
2021/12/25 12:13:31;;;;;;;;;24.33;17.67;;;;;14.27;71.74;100076.06;5006877;28;47683;-76
2021/12/25 12:16:05;;;;;;;;;16.00;16.00;;;;;14.31;71.69;100074.25;4991434;28;45343;-76
2021/12/25 12:18:32;;;;;;;;;18.00;17.00;;;;;14.31;71.13;100075.13;5003737;28;45325;-77
2021/12/25 12:21:17;;;;;;;;;19.67;16.00;;;;;14.32;71.68;100071.56;5014040;28;45496;-76
2021/12/25 12:26:13;;;;;;;;;14.67;14.67;;;;;14.31;71.42;100068.94;5003430;28;45518;-78
2021/12/25 12:28:52;;;;;;;;;23.00;18.00;;;;;14.33;71.37;100072.47;5000558;28;45455;-76
2021/12/25 12:31:40;;;;;;;;;22.67;18.67;;;;;14.30;71.02;100078.69;4998873;28;45519;-78
2021/12/25 12:34:34;;;;;;;;;20.00;16.33;;;;;14.31;71.03;100076.91;5002293;28;46808;-76